Aviation Digital Data Service (ADDS)

Output produced by METARs form (1816 UTC 24 November 2017)
found at http://www.aviationweather.gov/adds/metars/
 
SEGU 241800Z 14005KT 9999 FEW030 SCT100 29/19 Q1010 NOSIG RMK A2984
SEGU 241630Z 2418/2518 16008KT 9999 SCT020 SCT100 
     FM250000 22014KT 9999 SCT020 BKN100 
     FM250600 24010KT 9999 BKN020 BKN100 
     TEMPO 2515/2518 16006KT SCT020 TX29/2419Z TN21/2509Z
       
SEMT 241800Z 21006KT 9999 BKN020 25/21 Q1012 RMK A2989
SEMT 241630Z 2418/2518 25010KT 9999 SCT026 
     FM250000 22005KT 9999 BKN020 
     TEMPO 2506/2509 OVC020 TX28/2420Z TN20/2510Z